sensor_id;sensor_type;location;lat;lon;timestamp;pressure;altitude;pressure_sealevel;temperature;humidity
60015;BME280;45867;52.480;6.056;2023-04-03T00:00:49;103144.19;;;1.37;100.00
60015;BME280;45867;52.480;6.056;2023-04-03T00:03:17;103153.59;;;1.48;100.00
60015;BME280;45867;52.480;6.056;2023-04-03T00:05:43;103152.22;;;1.44;100.00
60015;BME280;45867;52.480;6.056;2023-04-03T00:08:08;103165.84;;;1.47;100.00
60015;BME280;45867;52.480;6.056;2023-04-03T00:10:36;103161.81;;;1.53;100.00
60015;BME280;45867;52.480;6.056;2023-04-03T00:13:05;103164.78;;;1.40;100.00
60015;BME280;45867;52.480;6.056;2023-04-03T00:15:31;103160.16;;;1.34;100.00
60015;BME280;45867;52.480;6.056;2023-04-03T00:17:56;103156.13;;;1.40;100.00
60015;BME280;45867;52.480;6.056;2023-04-03T00:20:22;103159.59;;;1.30;100.00
60015;BME280;45867;52.480;6.056;2023-04-03T00:22:47;103156.44;;;1.37;100.00
60015;BME280;45867;52.480;6.056;2023-04-03T00:25:13;103156.56;;;1.35;100.00
60015;BME280;45867;52.480;6.056;2023-04-03T00:27:39;103167.31;;;1.32;100.00
60015;BME280;45867;52.480;6.056;2023-04-03T00:30:06;103168.13;;;1.32;100.00
60015;BME280;45867;52.480;6.056;2023-04-03T00:32:52;103168.84;;;1.25;100.00
60015;BME280;45867;52.480;6.056;2023-04-03T00:35:19;103164.91;;;1.21;100.00
60015;BME280;45867;52.480;6.056;2023-04-03T00:37:44;103169.47;;;1.09;100.00
60015;BME280;45867;52.480;6.056;2023-04-03T00:40:11;103168.38;;;1.11;100.00
60015;BME280;45867;52.480;6.056;2023-04-03T00:42:40;103160.00;;;1.08;100.00
60015;BME280;45867;52.480;6.056;2023-04-03T00:47:31;103155.97;;;0.96;100.00
60015;BME280;45867;52.480;6.056;2023-04-03T00:49:57;103171.47;;;0.97;100.00
60015;BME280;45867;52.480;6.056;2023-04-03T00:52:26;103160.69;;;0.82;100.00
60015;BME280;45867;52.480;6.056;2023-04-03T00:54:54;103174.25;;;0.86;100.00
60015;BME280;45867;52.480;6.056;2023-04-03T00:57:22;103177.09;;;0.93;100.00
60015;BME280;45867;52.480;6.056;2023-04-03T00:59:59;103178.78;;;0.84;100.00
60015;BME280;45867;52.480;6.056;2023-04-03T01:02:26;103162.63;;;0.71;100.00
60015;BME280;45867;52.480;6.056;2023-04-03T01:04:52;103181.28;;;0.76;100.00
60015;BME280;45867;52.480;6.056;2023-04-03T01:07:23;103178.03;;;0.74;100.00
60015;BME280;45867;52.480;6.056;2023-04-03T01:09:51;103181.59;;;0.73;100.00
60015;BME280;45867;52.480;6.056;2023-04-03T01:12:26;103185.31;;;0.70;100.00
60015;BME280;45867;52.480;6.056;2023-04-03T01:14:57;103168.47;;;0.55;100.00
60015;BME280;45867;52.480;6.056;2023-04-03T01:17:36;103190.69;;;0.69;100.00
60015;BME280;45867;52.480;6.056;2023-04-03T01:20:36;103191.09;;;0.74;100.00
60015;BME280;45867;52.480;6.056;2023-04-03T01:25:28;103185.63;;;0.57;100.00
60015;BME280;45867;52.480;6.056;2023-04-03T01:27:54;103189.72;;;0.60;100.00
60015;BME280;45867;52.480;6.056;2023-04-03T01:30:21;103185.19;;;0.62;100.00
60015;BME280;45867;52.480;6.056;2023-04-03T01:32:48;103186.97;;;0.61;100.00
60015;BME280;45867;52.480;6.056;2023-04-03T01:35:14;103191.09;;;0.54;100.00
60015;BME280;45867;52.480;6.056;2023-04-03T01:37:39;103198.41;;;0.51;100.00
60015;BME280;45867;52.480;6.056;2023-04-03T01:40:05;103191.50;;;0.59;100.00
60015;BME280;45867;52.480;6.056;2023-04-03T01:42:32;103189.19;;;0.56;100.00
60015;BME280;45867;52.480;6.056;2023-04-03T01:44:57;103189.88;;;0.49;100.00
60015;BME280;45867;52.480;6.056;2023-04-03T01:47:23;103203.91;;;0.57;100.00
60015;BME280;45867;52.480;6.056;2023-04-03T01:49:48;103192.78;;;0.46;100.00
60015;BME280;45867;52.480;6.056;2023-04-03T01:52:14;103206.09;;;0.42;100.00
60015;BME280;45867;52.480;6.056;2023-04-03T01:54:39;103199.78;;;0.35;100.00
60015;BME280;45867;52.480;6.056;2023-04-03T01:57:05;103207.50;;;0.37;100.00
60015;BME280;45867;52.480;6.056;2023-04-03T01:59:30;103207.06;;;0.41;100.00
60015;BME280;45867;52.480;6.056;2023-04-03T02:01:56;103195.72;;;0.33;100.00
60015;BME280;45867;52.480;6.056;2023-04-03T02:04:21;103203.25;;;0.36;100.00
60015;BME280;45867;52.480;6.056;2023-04-03T02:06:47;103193.78;;;0.25;100.00
60015;BME280;45867;52.480;6.056;2023-04-03T02:09:12;103209.56;;;0.33;100.00
60015;BME280;45867;52.480;6.056;2023-04-03T02:11:38;103208.75;;;0.23;100.00
60015;BME280;45867;52.480;6.056;2023-04-03T02:14:03;103209.97;;;0.38;100.00
60015;BME280;45867;52.480;6.056;2023-04-03T02:16:29;103209.69;;;0.32;100.00
60015;BME280;45867;52.480;6.056;2023-04-03T02:18:56;103203.53;;;0.23;100.00
60015;BME280;45867;52.480;6.056;2023-04-03T02:21:21;103192.13;;;0.05;100.00
60015;BME280;45867;52.480;6.056;2023-04-03T02:23:47;103217.94;;;0.08;100.00
60015;BME280;45867;52.480;6.056;2023-04-03T02:26:14;103198.59;;;0.01;100.00
60015;BME280;45867;52.480;6.056;2023-04-03T02:28:40;103199.69;;;-0.02;100.00
60015;BME280;45867;52.480;6.056;2023-04-03T02:31:08;103211.19;;;0.05;100.00
60015;BME280;45867;52.480;6.056;2023-04-03T02:33:34;103206.97;;;0.04;100.00
60015;BME280;45867;52.480;6.056;2023-04-03T02:36:04;103197.38;;;-0.05;100.00
60015;BME280;45867;52.480;6.056;2023-04-03T02:38:31;103230.16;;;0.17;100.00
60015;BME280;45867;52.480;6.056;2023-04-03T02:41:04;103234.13;;;0.11;100.00
60015;BME280;45867;52.480;6.056;2023-04-03T02:43:30;103233.03;;;0.14;100.00
60015;BME280;45867;52.480;6.056;2023-04-03T02:45:55;103229.75;;;0.12;100.00
60015;BME280;45867;52.480;6.056;2023-04-03T02:48:21;103234.66;;;0.05;100.00
60015;BME280;45867;52.480;6.056;2023-04-03T02:50:46;103241.81;;;0.03;100.00
60015;BME280;45867;52.480;6.056;2023-04-03T02:53:12;103232.75;;;0.07;100.00
60015;BME280;45867;52.480;6.056;2023-04-03T02:55:37;103237.56;;;0.02;100.00
60015;BME280;45867;52.480;6.056;2023-04-03T02:58:02;103240.97;;;-0.07;100.00
60015;BME280;45867;52.480;6.056;2023-04-03T03:00:29;103243.03;;;-0.11;100.00
60015;BME280;45867;52.480;6.056;2023-04-03T03:02:55;103243.59;;;-0.07;100.00
60015;BME280;45867;52.480;6.056;2023-04-03T03:05:20;103250.03;;;-0.11;100.00
60015;BME280;45867;52.480;6.056;2023-04-03T03:07:46;103254.25;;;-0.20;100.00
60015;BME280;45867;52.480;6.056;2023-04-03T03:10:13;103247.13;;;-0.28;100.00
60015;BME280;45867;52.480;6.056;2023-04-03T03:12:39;103255.78;;;-0.17;100.00
60015;BME280;45867;52.480;6.056;2023-04-03T03:15:06;103250.72;;;-0.19;100.00
60015;BME280;45867;52.480;6.056;2023-04-03T03:17:31;103249.06;;;-0.10;100.00
60015;BME280;45867;52.480;6.056;2023-04-03T03:19:57;103250.16;;;-0.23;100.00
60015;BME280;45867;52.480;6.056;2023-04-03T03:22:22;103254.97;;;-0.18;100.00
60015;BME280;45867;52.480;6.056;2023-04-03T03:24:48;103266.03;;;-0.26;100.00
60015;BME280;45867;52.480;6.056;2023-04-03T03:27:13;103247.25;;;-0.29;100.00
60015;BME280;45867;52.480;6.056;2023-04-03T03:29:38;103248.75;;;-0.36;100.00
60015;BME280;45867;52.480;6.056;2023-04-03T03:32:04;103261.09;;;-0.29;100.00
60015;BME280;45867;52.480;6.056;2023-04-03T03:34:29;103263.44;;;-0.35;100.00
60015;BME280;45867;52.480;6.056;2023-04-03T03:36:55;103256.13;;;-0.41;100.00
60015;BME280;45867;52.480;6.056;2023-04-03T03:39:20;103262.97;;;-0.50;100.00
60015;BME280;45867;52.480;6.056;2023-04-03T03:41:46;103267.47;;;-0.52;100.00
60015;BME280;45867;52.480;6.056;2023-04-03T03:44:11;103258.06;;;-0.43;100.00
60015;BME280;45867;52.480;6.056;2023-04-03T03:46:37;103262.69;;;-0.47;100.00
60015;BME280;45867;52.480;6.056;2023-04-03T03:49:02;103254.59;;;-0.54;100.00
60015;BME280;45867;52.480;6.056;2023-04-03T03:51:27;103270.41;;;-0.46;100.00
60015;BME280;45867;52.480;6.056;2023-04-03T03:53:53;103271.22;;;-0.45;100.00
60015;BME280;45867;52.480;6.056;2023-04-03T03:56:18;103277.34;;;-0.56;100.00
60015;BME280;45867;52.480;6.056;2023-04-03T03:58:43;103277.88;;;-0.62;100.00
60015;BME280;45867;52.480;6.056;2023-04-03T04:01:09;103282.78;;;-0.69;100.00
60015;BME280;45867;52.480;6.056;2023-04-03T04:03:34;103277.28;;;-0.75;100.00
60015;BME280;45867;52.480;6.056;2023-04-03T04:05:59;103286.97;;;-0.77;100.00
60015;BME280;45867;52.480;6.056;2023-04-03T04:08:27;103278.88;;;-0.84;100.00
60015;BME280;45867;52.480;6.056;2023-04-03T04:10:53;103270.75;;;-0.91;100.00
60015;BME280;45867;52.480;6.056;2023-04-03T04:13:18;103283.91;;;-0.92;100.00
60015;BME280;45867;52.480;6.056;2023-04-03T04:15:44;103265.06;;;-1.05;100.00
60015;BME280;45867;52.480;6.056;2023-04-03T04:18:09;103277.00;;;-1.03;100.00
60015;BME280;45867;52.480;6.056;2023-04-03T04:20:34;103275.28;;;-0.93;100.00
60015;BME280;45867;52.480;6.056;2023-04-03T04:23:01;103290.19;;;-0.95;100.00
60015;BME280;45867;52.480;6.056;2023-04-03T04:25:27;103285.38;;;-0.99;100.00
60015;BME280;45867;52.480;6.056;2023-04-03T04:27:52;103280.78;;;-1.07;100.00
60015;BME280;45867;52.480;6.056;2023-04-03T04:30:18;103294.47;;;-1.15;100.00
60015;BME280;45867;52.480;6.056;2023-04-03T04:32:43;103280.56;;;-1.25;100.00
60015;BME280;45867;52.480;6.056;2023-04-03T04:35:09;103294.59;;;-1.16;100.00
60015;BME280;45867;52.480;6.056;2023-04-03T04:37:34;103296.38;;;-1.17;100.00
60015;BME280;45867;52.480;6.056;2023-04-03T04:40:00;103264.19;;;-1.37;100.00
60015;BME280;45867;52.480;6.056;2023-04-03T04:42:25;103278.69;;;-1.23;100.00
60015;BME280;45867;52.480;6.056;2023-04-03T04:44:51;103290.16;;;-1.25;100.00
60015;BME280;45867;52.480;6.056;2023-04-03T04:47:16;103277.69;;;-1.43;100.00
60015;BME280;45867;52.480;6.056;2023-04-03T04:49:42;103294.97;;;-1.21;100.00
60015;BME280;45867;52.480;6.056;2023-04-03T04:52:07;103290.53;;;-1.30;100.00
60015;BME280;45867;52.480;6.056;2023-04-03T04:54:32;103287.22;;;-1.32;100.00
60015;BME280;45867;52.480;6.056;2023-04-03T04:56:58;103311.91;;;-1.26;100.00
60015;BME280;45867;52.480;6.056;2023-04-03T04:59:24;103302.81;;;-1.32;100.00
60015;BME280;45867;52.480;6.056;2023-04-03T05:01:49;103300.75;;;-1.38;100.00
60015;BME280;45867;52.480;6.056;2023-04-03T05:04:15;103317.00;;;-1.25;100.00
60015;BME280;45867;52.480;6.056;2023-04-03T05:06:40;103309.81;;;-1.32;100.00
60015;BME280;45867;52.480;6.056;2023-04-03T05:09:06;103310.78;;;-1.33;100.00
60015;BME280;45867;52.480;6.056;2023-04-03T05:11:32;103307.72;;;-1.39;100.00
60015;BME280;45867;52.480;6.056;2023-04-03T05:14:00;103307.97;;;-1.42;100.00
60015;BME280;45867;52.480;6.056;2023-04-03T05:16:26;103313.28;;;-1.43;100.00
60015;BME280;45867;52.480;6.056;2023-04-03T05:18:54;103318.56;;;-1.33;100.00
60015;BME280;45867;52.480;6.056;2023-04-03T05:21:19;103304.41;;;-1.41;100.00
60015;BME280;45867;52.480;6.056;2023-04-03T05:23:46;103297.31;;;-1.18;100.00
60015;BME280;45867;52.480;6.056;2023-04-03T05:26:12;103305.09;;;-1.18;100.00
60015;BME280;45867;52.480;6.056;2023-04-03T05:28:37;103284.09;;;-1.26;100.00
60015;BME280;45867;52.480;6.056;2023-04-03T05:31:04;103308.16;;;-1.13;100.00
60015;BME280;45867;52.480;6.056;2023-04-03T05:33:29;103310.75;;;-1.13;100.00
60015;BME280;45867;52.480;6.056;2023-04-03T05:35:57;103321.16;;;-1.13;100.00
60015;BME280;45867;52.480;6.056;2023-04-03T05:38:26;103314.59;;;-1.17;100.00
60015;BME280;45867;52.480;6.056;2023-04-03T05:40:54;103330.44;;;-1.20;100.00
60015;BME280;45867;52.480;6.056;2023-04-03T05:43:20;103318.19;;;-1.29;100.00
60015;BME280;45867;52.480;6.056;2023-04-03T05:45:47;103337.84;;;-1.15;100.00
60015;BME280;45867;52.480;6.056;2023-04-03T05:48:12;103327.28;;;-1.02;100.00
60015;BME280;45867;52.480;6.056;2023-04-03T05:50:38;103330.94;;;-1.05;100.00
60015;BME280;45867;52.480;6.056;2023-04-03T05:53:07;103340.84;;;-0.99;100.00
60015;BME280;45867;52.480;6.056;2023-04-03T05:55:37;103336.22;;;-0.95;100.00
60015;BME280;45867;52.480;6.056;2023-04-03T05:58:02;103335.72;;;-0.89;100.00
60015;BME280;45867;52.480;6.056;2023-04-03T06:00:28;103340.38;;;-0.62;100.00
60015;BME280;45867;52.480;6.056;2023-04-03T06:02:53;103325.53;;;-0.31;100.00
60015;BME280;45867;52.480;6.056;2023-04-03T06:05:19;103336.56;;;-0.17;100.00
60015;BME280;45867;52.480;6.056;2023-04-03T06:07:44;103341.22;;;-0.21;100.00
60015;BME280;45867;52.480;6.056;2023-04-03T06:10:11;103336.63;;;-0.38;100.00
60015;BME280;45867;52.480;6.056;2023-04-03T06:12:37;103346.38;;;-0.40;100.00
60015;BME280;45867;52.480;6.056;2023-04-03T06:15:03;103325.75;;;-0.53;100.00
60015;BME280;45867;52.480;6.056;2023-04-03T06:17:28;103354.69;;;-0.47;100.00
60015;BME280;45867;52.480;6.056;2023-04-03T06:19:54;103351.84;;;-0.43;100.00
60015;BME280;45867;52.480;6.056;2023-04-03T06:22:21;103344.69;;;-0.41;100.00
60015;BME280;45867;52.480;6.056;2023-04-03T06:24:46;103356.78;;;-0.40;100.00
60015;BME280;45867;52.480;6.056;2023-04-03T06:27:12;103346.75;;;-0.45;100.00
60015;BME280;45867;52.480;6.056;2023-04-03T06:29:37;103338.66;;;-0.52;100.00
60015;BME280;45867;52.480;6.056;2023-04-03T06:32:10;103342.38;;;-0.45;100.00
60015;BME280;45867;52.480;6.056;2023-04-03T06:34:35;103364.63;;;-0.31;100.00
60015;BME280;45867;52.480;6.056;2023-04-03T06:37:01;103362.91;;;-0.20;100.00
60015;BME280;45867;52.480;6.056;2023-04-03T06:39:26;103366.19;;;-0.18;100.00
60015;BME280;45867;52.480;6.056;2023-04-03T06:41:52;103367.06;;;-0.08;100.00
60015;BME280;45867;52.480;6.056;2023-04-03T06:44:17;103365.72;;;-0.03;100.00
60015;BME280;45867;52.480;6.056;2023-04-03T06:46:44;103371.91;;;0.06;100.00
60015;BME280;45867;52.480;6.056;2023-04-03T06:49:10;103367.13;;;0.11;100.00
60015;BME280;45867;52.480;6.056;2023-04-03T06:51:36;103370.16;;;0.26;100.00
60015;BME280;45867;52.480;6.056;2023-04-03T06:54:02;103366.16;;;0.32;100.00
60015;BME280;45867;52.480;6.056;2023-04-03T06:56:28;103347.91;;;0.22;100.00
60015;BME280;45867;52.480;6.056;2023-04-03T06:58:55;103361.09;;;0.40;100.00
60015;BME280;45867;52.480;6.056;2023-04-03T07:01:24;103384.59;;;0.50;100.00
60015;BME280;45867;52.480;6.056;2023-04-03T07:03:55;103387.75;;;0.53;100.00
60015;BME280;45867;52.480;6.056;2023-04-03T07:06:27;103385.81;;;0.65;100.00
60015;BME280;45867;52.480;6.056;2023-04-03T07:08:53;103377.59;;;0.70;100.00
60015;BME280;45867;52.480;6.056;2023-04-03T07:11:19;103385.16;;;0.82;100.00
60015;BME280;45867;52.480;6.056;2023-04-03T07:13:45;103388.31;;;0.96;100.00
60015;BME280;45867;52.480;6.056;2023-04-03T07:16:11;103379.91;;;1.02;100.00
60015;BME280;45867;52.480;6.056;2023-04-03T07:18:37;103392.41;;;1.18;100.00
60015;BME280;45867;52.480;6.056;2023-04-03T07:21:04;103387.44;;;1.24;100.00
60015;BME280;45867;52.480;6.056;2023-04-03T07:23:29;103387.31;;;1.26;100.00
60015;BME280;45867;52.480;6.056;2023-04-03T07:25:55;103390.44;;;1.39;100.00
60015;BME280;45867;52.480;6.056;2023-04-03T07:28:22;103387.28;;;1.36;100.00
60015;BME280;45867;52.480;6.056;2023-04-03T07:30:59;103397.94;;;1.52;100.00
60015;BME280;45867;52.480;6.056;2023-04-03T07:33:25;103402.75;;;1.57;100.00
60015;BME280;45867;52.480;6.056;2023-04-03T07:35:50;103401.22;;;1.64;100.00
60015;BME280;45867;52.480;6.056;2023-04-03T07:38:16;103411.44;;;1.85;100.00
60015;BME280;45867;52.480;6.056;2023-04-03T07:40:46;103391.22;;;2.14;100.00
60015;BME280;45867;52.480;6.056;2023-04-03T07:43:11;103399.94;;;3.30;100.00
60015;BME280;45867;52.480;6.056;2023-04-03T07:45:37;103384.31;;;4.48;100.00
60015;BME280;45867;52.480;6.056;2023-04-03T07:48:04;103407.16;;;6.16;100.00
60015;BME280;45867;52.480;6.056;2023-04-03T07:50:29;103402.91;;;6.84;100.00
60015;BME280;45867;52.480;6.056;2023-04-03T07:52:56;103417.66;;;7.31;100.00
60015;BME280;45867;52.480;6.056;2023-04-03T07:55:23;103410.94;;;7.29;100.00
60015;BME280;45867;52.480;6.056;2023-04-03T07:57:48;103434.22;;;7.85;100.00
60015;BME280;45867;52.480;6.056;2023-04-03T08:00:14;103417.38;;;7.71;100.00
60015;BME280;45867;52.480;6.056;2023-04-03T08:02:40;103425.78;;;8.40;100.00
60015;BME280;45867;52.480;6.056;2023-04-03T08:05:05;103422.31;;;8.61;100.00
60015;BME280;45867;52.480;6.056;2023-04-03T08:07:31;103409.47;;;8.58;97.38
60015;BME280;45867;52.480;6.056;2023-04-03T08:09:56;103427.13;;;9.01;90.10
60015;BME280;45867;52.480;6.056;2023-04-03T08:12:22;103414.06;;;8.93;84.58
60015;BME280;45867;52.480;6.056;2023-04-03T08:14:47;103442.06;;;9.43;84.57
60015;BME280;45867;52.480;6.056;2023-04-03T08:17:13;103444.25;;;10.09;77.04
60015;BME280;45867;52.480;6.056;2023-04-03T08:19:41;103426.19;;;9.85;68.60
60015;BME280;45867;52.480;6.056;2023-04-03T08:22:07;103441.19;;;10.87;69.38
60015;BME280;45867;52.480;6.056;2023-04-03T08:24:33;103440.31;;;11.40;63.11
60015;BME280;45867;52.480;6.056;2023-04-03T08:26:59;103433.81;;;10.82;56.61
60015;BME280;45867;52.480;6.056;2023-04-03T08:29:24;103425.25;;;10.74;62.31
60015;BME280;45867;52.480;6.056;2023-04-03T08:31:50;103446.09;;;10.97;56.58
60015;BME280;45867;52.480;6.056;2023-04-03T08:34:16;103438.25;;;11.55;59.81
60015;BME280;45867;52.480;6.056;2023-04-03T08:36:42;103431.28;;;12.51;59.05
60015;BME280;45867;52.480;6.056;2023-04-03T08:39:10;103456.91;;;12.77;51.58
60015;BME280;45867;52.480;6.056;2023-04-03T08:41:40;103439.91;;;13.83;51.82
60015;BME280;45867;52.480;6.056;2023-04-03T08:44:31;103458.16;;;14.16;46.18
60015;BME280;45867;52.480;6.056;2023-04-03T08:50:07;103448.31;;;14.29;44.36
60015;BME280;45867;52.480;6.056;2023-04-03T08:52:40;103456.91;;;13.64;41.18
60015;BME280;45867;52.480;6.056;2023-04-03T08:55:28;103459.53;;;13.70;40.89
60015;BME280;45867;52.480;6.056;2023-04-03T08:58:05;103448.59;;;14.39;41.96
60015;BME280;45867;52.480;6.056;2023-04-03T09:03:17;103442.22;;;15.05;39.59
60015;BME280;45867;52.480;6.056;2023-04-03T09:08:50;103448.47;;;15.58;40.06
60015;BME280;45867;52.480;6.056;2023-04-03T09:15:30;103445.03;;;16.60;37.61
60015;BME280;45867;52.480;6.056;2023-04-03T09:17:46;103441.44;;;17.22;38.13
60015;BME280;45867;52.480;6.056;2023-04-03T09:27:39;103433.34;;;16.67;35.26
60015;BME280;45867;52.480;6.056;2023-04-03T09:30:05;103430.72;;;16.83;34.02
60015;BME280;45867;52.480;6.056;2023-04-03T09:32:34;103428.25;;;16.99;34.11
60015;BME280;45867;52.480;6.056;2023-04-03T09:35:13;103425.56;;;18.04;34.30
60015;BME280;45867;52.480;6.056;2023-04-03T09:37:44;103429.41;;;16.86;32.89
60015;BME280;45867;52.480;6.056;2023-04-03T09:40:36;103421.41;;;16.74;33.68
60015;BME280;45867;52.480;6.056;2023-04-03T09:43:33;103426.06;;;17.79;33.53
60015;BME280;45867;52.480;6.056;2023-04-03T09:46:25;103427.22;;;17.83;30.69
60015;BME280;45867;52.480;6.056;2023-04-03T09:49:02;103426.75;;;17.47;30.12
60015;BME280;45867;52.480;6.056;2023-04-03T09:51:29;103416.72;;;16.98;31.53
60015;BME280;45867;52.480;6.056;2023-04-03T09:53:56;103399.53;;;16.77;30.40
60015;BME280;45867;52.480;6.056;2023-04-03T09:56:27;103408.59;;;17.54;29.85
60015;BME280;45867;52.480;6.056;2023-04-03T10:01:28;103418.59;;;17.81;27.72
60015;BME280;45867;52.480;6.056;2023-04-03T10:04:15;103419.22;;;17.66;29.62
60015;BME280;45867;52.480;6.056;2023-04-03T10:06:46;103421.38;;;17.25;29.30
60015;BME280;45867;52.480;6.056;2023-04-03T10:12:11;103409.53;;;17.65;28.11
60015;BME280;45867;52.480;6.056;2023-04-03T10:14:40;103400.56;;;17.54;29.00
60015;BME280;45867;52.480;6.056;2023-04-03T10:19:57;103384.28;;;17.83;27.60
60015;BME280;45867;52.480;6.056;2023-04-03T10:22:43;103396.56;;;17.13;28.48
60015;BME280;45867;52.480;6.056;2023-04-03T10:25:36;103398.56;;;18.48;29.26
60015;BME280;45867;52.480;6.056;2023-04-03T10:28:02;103387.16;;;17.76;28.61
60015;BME280;45867;52.480;6.056;2023-04-03T10:33:20;103387.25;;;19.30;27.76
60015;BME280;45867;52.480;6.056;2023-04-03T10:36:19;103383.91;;;18.66;28.84
60015;BME280;45867;52.480;6.056;2023-04-03T10:39:15;103376.81;;;17.63;28.13
60015;BME280;45867;52.480;6.056;2023-04-03T10:46:54;103371.59;;;19.95;27.50
60015;BME280;45867;52.480;6.056;2023-04-03T10:52:43;103362.03;;;19.47;27.04
60015;BME280;45867;52.480;6.056;2023-04-03T10:57:39;103349.13;;;18.44;27.54
60015;BME280;45867;52.480;6.056;2023-04-03T11:00:13;103358.72;;;18.72;27.51
60015;BME280;45867;52.480;6.056;2023-04-03T11:02:52;103355.44;;;20.06;26.58
60015;BME280;45867;52.480;6.056;2023-04-03T11:05:34;103345.47;;;19.81;26.32
60015;BME280;45867;52.480;6.056;2023-04-03T11:08:07;103343.47;;;18.40;27.03
60015;BME280;45867;52.480;6.056;2023-04-03T11:13:46;103353.31;;;17.97;27.66
60015;BME280;45867;52.480;6.056;2023-04-03T11:16:19;103335.84;;;19.17;27.53
60015;BME280;45867;52.480;6.056;2023-04-03T11:18:56;103347.00;;;18.13;27.44
60015;BME280;45867;52.480;6.056;2023-04-03T11:21:32;103341.63;;;18.13;28.76
60015;BME280;45867;52.480;6.056;2023-04-03T11:24:03;103326.13;;;17.61;28.59
60015;BME280;45867;52.480;6.056;2023-04-03T11:26:31;103321.75;;;18.41;27.64
60015;BME280;45867;52.480;6.056;2023-04-03T11:29:07;103328.78;;;19.73;25.56
60015;BME280;45867;52.480;6.056;2023-04-03T11:34:22;103320.00;;;19.15;27.27
60015;BME280;45867;52.480;6.056;2023-04-03T11:36:56;103328.44;;;18.39;25.62
60015;BME280;45867;52.480;6.056;2023-04-03T11:39:30;103322.59;;;18.52;28.77
60015;BME280;45867;52.480;6.056;2023-04-03T11:42:22;103325.75;;;19.55;27.84
60015;BME280;45867;52.480;6.056;2023-04-03T11:44:50;103320.16;;;17.81;27.12
60015;BME280;45867;52.480;6.056;2023-04-03T11:47:50;103317.41;;;18.03;27.62
60015;BME280;45867;52.480;6.056;2023-04-03T11:53:48;103316.69;;;17.09;28.54
60015;BME280;45867;52.480;6.056;2023-04-03T12:24:24;103281.16;;;18.38;28.18
60015;BME280;45867;52.480;6.056;2023-04-03T12:46:51;103259.22;;;18.51;27.42
60015;BME280;45867;52.480;6.056;2023-04-03T12:51:54;103261.38;;;18.07;27.95
60015;BME280;45867;52.480;6.056;2023-04-03T12:54:26;103239.38;;;16.96;28.65
60015;BME280;45867;52.480;6.056;2023-04-03T12:57:09;103252.41;;;16.49;28.84
60015;BME280;45867;52.480;6.056;2023-04-03T12:59:34;103246.19;;;15.75;28.56
60015;BME280;45867;52.480;6.056;2023-04-03T13:02:02;103249.84;;;15.12;29.62
60015;BME280;45867;52.480;6.056;2023-04-03T13:04:30;103237.03;;;14.74;31.09
60015;BME280;45867;52.480;6.056;2023-04-03T13:06:56;103228.38;;;15.98;31.29
60015;BME280;45867;52.480;6.056;2023-04-03T13:09:27;103216.47;;;15.43;30.14
60015;BME280;45867;52.480;6.056;2023-04-03T13:12:01;103216.50;;;16.28;30.33
60015;BME280;45867;52.480;6.056;2023-04-03T13:14:28;103224.75;;;16.04;30.06
60015;BME280;45867;52.480;6.056;2023-04-03T13:17:03;103218.97;;;15.04;31.32
60015;BME280;45867;52.480;6.056;2023-04-03T13:19:31;103226.97;;;15.33;31.04
60015;BME280;45867;52.480;6.056;2023-04-03T13:22:00;103220.81;;;15.32;31.57
60015;BME280;45867;52.480;6.056;2023-04-03T13:24:27;103220.41;;;15.24;32.08
60015;BME280;45867;52.480;6.056;2023-04-03T13:26:54;103213.63;;;15.95;30.27
60015;BME280;45867;52.480;6.056;2023-04-03T13:29:29;103223.72;;;15.60;32.11
60015;BME280;45867;52.480;6.056;2023-04-03T13:31:56;103211.66;;;14.36;31.45
60015;BME280;45867;52.480;6.056;2023-04-03T13:34:23;103229.72;;;14.10;32.56
60015;BME280;45867;52.480;6.056;2023-04-03T13:41:46;103227.19;;;14.27;34.15
60015;BME280;45867;52.480;6.056;2023-04-03T13:47:20;103218.16;;;13.51;34.53
60015;BME280;45867;52.480;6.056;2023-04-03T13:50:14;103210.72;;;14.07;34.18
60015;BME280;45867;52.480;6.056;2023-04-03T13:52:53;103218.66;;;14.89;33.75
60015;BME280;45867;52.480;6.056;2023-04-03T13:55:28;103199.59;;;14.97;33.93
60015;BME280;45867;52.480;6.056;2023-04-03T13:58:00;103202.03;;;14.58;33.40
60015;BME280;45867;52.480;6.056;2023-04-03T14:00:37;103205.63;;;14.40;34.26
60015;BME280;45867;52.480;6.056;2023-04-03T14:03:26;103190.22;;;14.19;34.86
60015;BME280;45867;52.480;6.056;2023-04-03T14:05:53;103184.84;;;14.07;34.96
60015;BME280;45867;52.480;6.056;2023-04-03T14:08:20;103179.03;;;14.46;35.14
60015;BME280;45867;52.480;6.056;2023-04-03T14:10:47;103178.94;;;14.52;34.66
60015;BME280;45867;52.480;6.056;2023-04-03T14:13:16;103177.41;;;14.44;34.44
60015;BME280;45867;52.480;6.056;2023-04-03T14:15:43;103176.63;;;14.20;34.94
60015;BME280;45867;52.480;6.056;2023-04-03T14:18:13;103174.78;;;14.09;35.97
60015;BME280;45867;52.480;6.056;2023-04-03T14:20:41;103183.25;;;14.06;35.72
60015;BME280;45867;52.480;6.056;2023-04-03T14:23:07;103176.41;;;13.45;36.29
60015;BME280;45867;52.480;6.056;2023-04-03T14:25:33;103188.31;;;13.12;36.89
60015;BME280;45867;52.480;6.056;2023-04-03T14:27:59;103177.66;;;13.30;37.12
60015;BME280;45867;52.480;6.056;2023-04-03T14:30:31;103185.47;;;13.44;35.91
60015;BME280;45867;52.480;6.056;2023-04-03T14:32:57;103165.06;;;13.38;36.87
60015;BME280;45867;52.480;6.056;2023-04-03T14:35:23;103171.03;;;13.03;36.77
60015;BME280;45867;52.480;6.056;2023-04-03T14:37:52;103171.28;;;13.01;37.23
60015;BME280;45867;52.480;6.056;2023-04-03T14:40:23;103173.91;;;12.53;35.96
60015;BME280;45867;52.480;6.056;2023-04-03T14:42:50;103169.84;;;12.69;37.80
60015;BME280;45867;52.480;6.056;2023-04-03T14:45:16;103172.16;;;12.95;37.75
60015;BME280;45867;52.480;6.056;2023-04-03T14:47:49;103169.34;;;12.90;37.95
60015;BME280;45867;52.480;6.056;2023-04-03T14:50:22;103178.94;;;12.61;38.32